createdAt,value
2023-03-20T00:02:21.186Z,98306.66
2023-03-20T00:04:47.694Z,98306.66
2023-03-20T00:07:14.158Z,98310.16
2023-03-20T00:09:40.460Z,98311.16
2023-03-20T00:12:07.061Z,98312.19
2023-03-20T00:14:34.444Z,98315.88
2023-03-20T00:17:00.758Z,98314.03
2023-03-20T00:19:28.966Z,98321.63
2023-03-20T00:21:56.115Z,98315.91
2023-03-20T00:24:23.218Z,98318.56
2023-03-20T00:26:51.501Z,98316.28
2023-03-20T00:34:42.570Z,98323.06
2023-03-20T00:37:10.466Z,98316.91
2023-03-20T00:39:36.774Z,98314.84
2023-03-20T00:42:07.168Z,98315.47
2023-03-20T00:44:47.629Z,98315.47
2023-03-20T00:47:20.054Z,98308.72
2023-03-20T00:49:48.886Z,98316.91
2023-03-20T00:52:17.198Z,98313.84
2023-03-20T00:54:43.640Z,98313.00
2023-03-20T00:57:20.132Z,98314.66
2023-03-20T00:59:59.805Z,98309.94
2023-03-20T01:02:27.730Z,98307.28
2023-03-20T01:04:54.707Z,98304.22
2023-03-20T01:07:21.158Z,98314.66
2023-03-20T01:09:47.696Z,98308.09
2023-03-20T01:12:15.381Z,98297.03
2023-03-20T01:14:43.101Z,98296.81
2023-03-20T01:17:18.668Z,98295.41
2023-03-20T01:19:45.002Z,98298.47
2023-03-20T01:22:11.445Z,98295.00
2023-03-20T01:24:40.310Z,98294.19
2023-03-20T01:27:18.584Z,98301.94
2023-03-20T01:29:45.589Z,98303.59
2023-03-20T01:32:14.564Z,98309.97
2023-03-20T01:34:40.962Z,98309.53
2023-03-20T01:37:13.465Z,98310.97
2023-03-20T01:39:39.884Z,98312.19
2023-03-20T01:42:07.080Z,98309.75
2023-03-20T01:44:35.395Z,98314.03
2023-03-20T01:47:03.947Z,98309.34
2023-03-20T01:49:48.722Z,98313.84
2023-03-20T01:52:15.082Z,98322.44
2023-03-20T01:54:41.407Z,98319.56
2023-03-20T01:57:12.593Z,98315.06
2023-03-20T01:59:45.033Z,98315.25
2023-03-20T02:02:16.475Z,98320.59
2023-03-20T02:04:46.589Z,98319.97
2023-03-20T02:07:16.477Z,98328.56
2023-03-20T02:09:42.828Z,98327.56
2023-03-20T02:12:10.909Z,98321.81
2023-03-20T02:14:37.875Z,98333.28
2023-03-20T02:17:08.697Z,98326.72
2023-03-20T02:19:46.820Z,98333.28
2023-03-20T02:22:59.282Z,98335.13
2023-03-20T02:25:59.774Z,98338.16
2023-03-20T02:28:54.321Z,98330.19
2023-03-20T02:31:36.011Z,98333.06
2023-03-20T02:34:34.131Z,98334.06
2023-03-20T02:37:34.592Z,98332.22
2023-03-20T02:40:12.169Z,98340.41
2023-03-20T02:42:56.326Z,98343.31
2023-03-20T02:45:35.403Z,98343.94
2023-03-20T02:48:20.255Z,98346.19
2023-03-20T02:51:04.891Z,98347.81
2023-03-20T02:56:36.875Z,98349.25
2023-03-20T02:59:26.025Z,98344.53
2023-03-20T03:02:02.212Z,98343.31
2023-03-20T03:04:34.709Z,98340.66
2023-03-20T03:07:03.727Z,98354.78
2023-03-20T03:09:34.293Z,98353.16
2023-03-20T03:12:10.516Z,98359.91
2023-03-20T03:14:52.376Z,98361.75
2023-03-20T03:17:23.195Z,98361.94
2023-03-20T03:19:52.496Z,98362.75
2023-03-20T03:22:20.064Z,98347.16
2023-03-20T03:24:47.692Z,98361.28
2023-03-20T03:27:27.467Z,98348.81
2023-03-20T03:30:00.460Z,98360.84
2023-03-20T03:32:34.257Z,98363.91
2023-03-20T03:35:03.458Z,98356.13
2023-03-20T03:37:48.438Z,98366.97
2023-03-20T03:40:21.895Z,98363.69
2023-03-20T03:43:09.134Z,98356.94
2023-03-20T03:48:28.113Z,98363.25
2023-03-20T03:50:59.653Z,98363.47
2023-03-20T03:53:41.204Z,98359.97
2023-03-20T03:56:12.604Z,98371.44
2023-03-20T03:58:46.807Z,98362.63
2023-03-20T04:01:16.416Z,98365.66
2023-03-20T04:03:48.891Z,98366.88
2023-03-20T04:06:16.858Z,98373.03
2023-03-20T04:08:43.415Z,98370.38
2023-03-20T04:11:22.733Z,98366.50
2023-03-20T04:13:51.115Z,98369.78
2023-03-20T04:16:19.380Z,98367.75
2023-03-20T04:18:46.141Z,98372.66
2023-03-20T04:21:12.915Z,98367.16
2023-03-20T04:23:39.412Z,98371.03
2023-03-20T04:26:06.385Z,98379.22
2023-03-20T04:28:33.016Z,98379.00
2023-03-20T04:31:00.535Z,98385.16
2023-03-20T04:33:27.850Z,98375.53
2023-03-20T04:35:54.818Z,98379.81
2023-03-20T04:38:21.765Z,98377.38
2023-03-20T04:40:48.071Z,98380.22
2023-03-20T04:43:15.654Z,98389.78
2023-03-20T04:45:42.249Z,98388.56
2023-03-20T04:48:08.993Z,98376.47
2023-03-20T04:50:35.333Z,98387.94
2023-03-20T04:53:01.727Z,98385.91
2023-03-20T04:55:28.075Z,98385.69
2023-03-20T04:57:54.361Z,98386.31
2023-03-20T05:00:20.964Z,98381.63
2023-03-20T05:02:47.328Z,98384.09
2023-03-20T05:05:13.627Z,98388.41
2023-03-20T05:07:40.004Z,98391.88
2023-03-20T05:10:06.615Z,98400.69
2023-03-20T05:12:32.871Z,98406.81
2023-03-20T05:14:59.261Z,98404.16
2023-03-20T05:17:25.564Z,98406.63
2023-03-20T05:19:51.850Z,98416.22
2023-03-20T05:22:18.840Z,98408.69
2023-03-20T05:24:45.218Z,98415.44
2023-03-20T05:27:11.804Z,98414.41
2023-03-20T05:29:38.086Z,98407.44
2023-03-20T05:32:04.810Z,98417.06
2023-03-20T05:34:31.118Z,98417.69
2023-03-20T05:36:57.534Z,98415.44
2023-03-20T05:39:23.978Z,98416.25
2023-03-20T05:41:50.273Z,98418.72
2023-03-20T05:44:16.741Z,98426.34
2023-03-20T05:46:43.093Z,98424.50
2023-03-20T05:49:09.415Z,98425.31
2023-03-20T05:51:35.715Z,98428.16
2023-03-20T05:54:02.106Z,98426.75
2023-03-20T05:56:28.416Z,98428.81
2023-03-20T05:58:54.853Z,98433.09
2023-03-20T06:01:21.179Z,98431.88
2023-03-20T06:03:48.045Z,98432.91
2023-03-20T06:06:15.758Z,98432.97
2023-03-20T06:08:42.281Z,98437.47
2023-03-20T06:11:09.130Z,98446.50
2023-03-20T06:13:35.586Z,98452.03
2023-03-20T06:16:02.287Z,98455.72
2023-03-20T06:18:28.592Z,98456.16
2023-03-20T06:20:56.696Z,98456.16
2023-03-20T06:23:24.244Z,98452.88
2023-03-20T06:25:50.802Z,98458.63
2023-03-20T06:28:17.120Z,98457.19
2023-03-20T06:30:44.443Z,98461.31
2023-03-20T06:33:10.812Z,98460.50
2023-03-20T06:35:37.541Z,98450.25
2023-03-20T06:38:04.161Z,98465.41
2023-03-20T06:40:30.567Z,98464.19
2023-03-20T06:42:57.006Z,98465.41
2023-03-20T06:45:23.329Z,98466.47
2023-03-20T06:47:49.735Z,98469.53
2023-03-20T06:50:16.311Z,98469.34
2023-03-20T06:52:42.684Z,98472.41
2023-03-20T06:55:09.205Z,98476.50
2023-03-20T06:57:36.052Z,98468.09
2023-03-20T07:00:04.714Z,98468.50
2023-03-20T07:02:31.105Z,98471.97
2023-03-20T07:04:57.488Z,98465.44
2023-03-20T07:07:23.868Z,98472.81
2023-03-20T07:09:50.224Z,98473.84
2023-03-20T07:12:17.309Z,98474.63
2023-03-20T07:14:43.752Z,98475.69
2023-03-20T07:17:10.511Z,98479.19
2023-03-20T07:19:38.215Z,98476.28
2023-03-20T07:22:07.619Z,98473.22
2023-03-20T07:24:34.724Z,98475.22
2023-03-20T07:27:01.262Z,98474.38
2023-03-20T07:29:27.568Z,98471.88
2023-03-20T07:31:54.038Z,98479.00
2023-03-20T07:39:43.831Z,98476.88
2023-03-20T07:42:10.164Z,98475.78
2023-03-20T07:47:11.788Z,98475.31
2023-03-20T07:49:38.063Z,98477.16
2023-03-20T07:57:33.413Z,98482.19
2023-03-20T07:59:59.715Z,98474.16
2023-03-20T08:02:25.997Z,98473.13
2023-03-20T08:04:52.300Z,98479.38
2023-03-20T08:07:18.656Z,98472.16
2023-03-20T08:09:45.012Z,98470.66
2023-03-20T08:12:11.322Z,98472.97
2023-03-20T08:14:37.619Z,98471.69
2023-03-20T08:17:14.603Z,98472.44
2023-03-20T08:19:42.329Z,98477.63
2023-03-20T08:22:08.655Z,98469.50
2023-03-20T08:24:35.012Z,98473.75
2023-03-20T08:27:01.371Z,98473.97
2023-03-20T08:29:27.862Z,98469.22
2023-03-20T08:31:54.269Z,98475.56
2023-03-20T08:34:22.870Z,98469.69
2023-03-20T08:36:50.300Z,98472.66
2023-03-20T08:39:16.599Z,98478.97
2023-03-20T08:41:42.889Z,98470.63
2023-03-20T08:44:09.222Z,98470.28
2023-03-20T08:46:35.605Z,98470.63
2023-03-20T08:49:01.928Z,98474.06
2023-03-20T08:51:28.222Z,98478.38
2023-03-20T08:53:54.747Z,98470.94
2023-03-20T08:56:21.049Z,98476.41
2023-03-20T08:58:47.382Z,98486.53
2023-03-20T09:01:13.691Z,98477.97
2023-03-20T09:03:40.032Z,98478.66
2023-03-20T09:06:08.432Z,98478.66
2023-03-20T09:08:35.363Z,98488.19
2023-03-20T09:11:01.969Z,98494.63
2023-03-20T09:13:28.279Z,98496.06
2023-03-20T09:15:55.790Z,98497.63
2023-03-20T09:18:22.859Z,98499.41
2023-03-20T09:20:49.496Z,98492.41
2023-03-20T09:23:16.436Z,98502.97
2023-03-20T09:25:42.712Z,98492.63
2023-03-20T09:28:09.321Z,98499.97
2023-03-20T09:30:35.885Z,98496.03
2023-03-20T09:33:02.332Z,98498.84
2023-03-20T09:35:28.639Z,98503.19
2023-03-20T09:37:54.928Z,98495.41
2023-03-20T09:40:32.535Z,98500.78
2023-03-20T09:43:27.207Z,98504.59
2023-03-20T09:46:07.204Z,98507.53
2023-03-20T09:49:04.566Z,98500.00
2023-03-20T09:51:44.179Z,98504.38
2023-03-20T09:54:22.622Z,98502.84
2023-03-20T09:56:50.344Z,98503.13
2023-03-20T09:59:19.448Z,98502.88
2023-03-20T10:01:51.841Z,98505.31
2023-03-20T10:04:18.580Z,98498.19
2023-03-20T10:06:45.361Z,98502.84
2023-03-20T10:09:22.524Z,98496.94
2023-03-20T10:11:57.754Z,98498.88
2023-03-20T10:14:59.735Z,98501.34
2023-03-20T10:17:44.290Z,98495.53
2023-03-20T10:20:12.599Z,98500.53
2023-03-20T10:22:44.702Z,98494.56
2023-03-20T10:25:32.373Z,98495.91
2023-03-20T10:28:01.376Z,98499.34
2023-03-20T10:33:53.142Z,98490.41
2023-03-20T10:36:31.715Z,98499.53
2023-03-20T10:39:36.563Z,98504.34
2023-03-20T10:42:12.576Z,98490.78
2023-03-20T10:44:42.444Z,98498.38
2023-03-20T10:47:14.806Z,98490.63
2023-03-20T10:49:46.272Z,98488.47
2023-03-20T10:52:29.239Z,98479.53
2023-03-20T10:55:00.909Z,98484.91
2023-03-20T10:57:34.264Z,98482.69
2023-03-20T11:05:21.561Z,98497.75
2023-03-20T11:13:29.824Z,98490.25
2023-03-20T11:15:56.363Z,98489.22
2023-03-20T11:51:04.481Z,98466.00
2023-03-20T12:25:57.110Z,98442.06
2023-03-20T12:28:32.908Z,98442.19
2023-03-20T12:44:48.729Z,98420.25
2023-03-20T12:47:19.497Z,98414.44
2023-03-20T12:50:03.412Z,98414.09
2023-03-20T12:52:40.704Z,98410.81
2023-03-20T12:55:21.389Z,98418.75
2023-03-20T12:57:59.599Z,98416.66
2023-03-20T13:00:39.243Z,98417.81
2023-03-20T13:03:45.383Z,98427.72
2023-03-20T13:19:58.316Z,98421.09
2023-03-20T13:41:17.885Z,98406.91
2023-03-20T14:07:57.085Z,98387.13
2023-03-20T14:10:23.451Z,98379.34
2023-03-20T14:12:54.220Z,98373.47
2023-03-20T14:15:21.281Z,98374.91
2023-03-20T14:17:50.447Z,98371.28
2023-03-20T14:20:31.608Z,98365.44
2023-03-20T14:22:58.327Z,98373.94
2023-03-20T14:25:26.710Z,98365.44
2023-03-20T14:28:11.296Z,98369.41
2023-03-20T14:30:45.448Z,98366.69
2023-03-20T14:33:14.502Z,98366.81
2023-03-20T14:35:48.303Z,98366.59
2023-03-20T14:38:23.925Z,98362.50
2023-03-20T14:48:55.984Z,98366.84
2023-03-20T14:54:18.527Z,98371.63
2023-03-20T14:56:44.855Z,98369.41
2023-03-20T14:59:14.183Z,98366.16
2023-03-20T15:04:36.684Z,98363.34
2023-03-20T15:07:21.452Z,98366.94
2023-03-20T15:09:51.668Z,98363.66
2023-03-20T15:12:24.512Z,98364.59
2023-03-20T15:14:58.137Z,98358.31
2023-03-20T15:17:47.765Z,98359.88
2023-03-20T15:20:20.530Z,98357.78
2023-03-20T15:22:58.420Z,98360.13
2023-03-20T15:25:31.488Z,98352.41
2023-03-20T15:27:58.029Z,98353.47
2023-03-20T15:30:25.058Z,98364.56
2023-03-20T15:32:54.945Z,98361.50
2023-03-20T15:35:23.432Z,98358.34
2023-03-20T15:37:51.743Z,98367.25
2023-03-20T15:40:34.562Z,98359.63
2023-03-20T15:43:15.124Z,98359.63
2023-03-20T15:45:43.489Z,98356.31
2023-03-20T15:48:15.426Z,98369.81
2023-03-20T15:50:44.333Z,98357.38
2023-03-20T15:58:13.506Z,98360.56
2023-03-20T16:00:45.663Z,98360.97
2023-03-20T16:03:16.068Z,98358.97
2023-03-20T16:05:47.900Z,98366.50
2023-03-20T16:13:39.726Z,98367.69
2023-03-20T16:18:41.682Z,98371.63
2023-03-20T16:21:33.372Z,98363.47
2023-03-20T16:24:00.567Z,98364.19
2023-03-20T16:26:27.801Z,98366.19
2023-03-20T16:28:57.528Z,98370.13
2023-03-20T16:31:34.057Z,98369.28
2023-03-20T16:34:09.281Z,98369.16
2023-03-20T16:36:37.829Z,98371.00
2023-03-20T16:39:04.155Z,98370.63
2023-03-20T16:41:40.367Z,98365.72
2023-03-20T16:44:11.650Z,98362.91
2023-03-20T16:46:54.255Z,98367.06
2023-03-20T16:49:55.461Z,98365.44
2023-03-20T16:52:28.413Z,98372.44
2023-03-20T16:54:59.862Z,98372.72
2023-03-20T16:57:28.679Z,98376.19
2023-03-20T17:00:03.223Z,98375.22
2023-03-20T17:02:35.486Z,98377.75
2023-03-20T17:05:06.747Z,98375.31
2023-03-20T17:07:33.088Z,98375.16
2023-03-20T17:10:21.080Z,98372.72
2023-03-20T17:12:50.031Z,98381.59
2023-03-20T17:15:18.313Z,98380.38
2023-03-20T17:17:44.885Z,98378.13
2023-03-20T17:20:27.138Z,98383.97
2023-03-20T17:22:53.770Z,98381.78
2023-03-20T17:25:20.587Z,98386.09
2023-03-20T17:27:47.498Z,98380.81
2023-03-20T17:30:20.777Z,98388.06
2023-03-20T17:32:47.441Z,98394.22
2023-03-20T17:35:14.489Z,98389.53
2023-03-20T17:37:41.180Z,98395.28
2023-03-20T18:23:19.899Z,98400.44
2023-03-20T18:25:46.224Z,98399.00
2023-03-20T18:28:15.170Z,98401.84
2023-03-20T18:33:16.989Z,98399.41
2023-03-20T18:40:59.762Z,98395.75
2023-03-20T18:43:26.100Z,98397.38
2023-03-20T18:45:52.434Z,98398.19
2023-03-20T18:48:18.769Z,98398.63
2023-03-20T18:50:45.067Z,98395.56
2023-03-20T18:53:11.431Z,98397.00
2023-03-20T18:55:37.998Z,98400.06
2023-03-20T18:58:04.888Z,98396.16
2023-03-20T19:00:36.298Z,98399.03
2023-03-20T19:03:03.410Z,98395.53
2023-03-20T19:05:30.642Z,98399.25
2023-03-20T19:07:57.208Z,98398.63
2023-03-20T19:10:28.525Z,98401.28
2023-03-20T19:12:55.558Z,98395.97
2023-03-20T19:15:24.507Z,98402.31
2023-03-20T19:17:51.020Z,98403.94
2023-03-20T19:20:37.952Z,98402.94
2023-03-20T19:23:06.806Z,98402.72
2023-03-20T19:25:33.870Z,98401.69
2023-03-20T19:28:00.931Z,98395.53
2023-03-20T19:30:39.623Z,98394.53
2023-03-20T19:33:06.848Z,98399.63
2023-03-20T19:38:21.943Z,98393.69
2023-03-20T19:40:50.822Z,98393.50
2023-03-20T19:43:17.138Z,98399.84
2023-03-20T19:45:44.711Z,98404.16
2023-03-20T19:48:15.406Z,98394.31
2023-03-20T19:50:43.812Z,98391.84
2023-03-20T19:53:11.238Z,98392.88
2023-03-20T19:55:38.458Z,98393.09
2023-03-20T19:58:06.215Z,98391.25
2023-03-20T20:03:23.319Z,98392.91
2023-03-20T20:05:50.907Z,98398.03
2023-03-20T20:08:28.324Z,98393.31
2023-03-20T20:10:59.661Z,98393.09
2023-03-20T20:13:28.515Z,98391.84
2023-03-20T20:15:55.477Z,98399.66
2023-03-20T20:18:23.250Z,98395.56
2023-03-20T20:21:31.878Z,98392.47
2023-03-20T20:23:36.332Z,98394.31
2023-03-20T20:26:02.675Z,98389.59
2023-03-20T20:28:29.113Z,98396.13
2023-03-20T20:30:57.678Z,98395.09
2023-03-20T20:33:28.699Z,98396.13
2023-03-20T20:36:34.354Z,98395.31
2023-03-20T20:38:50.384Z,98393.88
2023-03-20T20:41:17.559Z,98399.41
2023-03-20T20:44:13.997Z,98396.75
2023-03-20T20:46:30.346Z,98392.66
2023-03-20T20:48:57.368Z,98395.72
2023-03-20T20:51:23.767Z,98386.50
2023-03-20T20:53:50.075Z,98397.56
2023-03-20T20:56:16.382Z,98397.31
2023-03-20T20:58:42.746Z,98403.66
2023-03-20T21:01:09.084Z,98401.78
2023-03-20T21:33:37.759Z,98395.84
2023-03-20T22:01:00.812Z,98387.28
2023-03-20T22:03:10.377Z,98380.31
2023-03-20T22:20:19.709Z,98378.00
2023-03-20T22:23:09.426Z,98375.94
2023-03-20T22:36:57.561Z,98384.47
2023-03-20T22:42:32.959Z,98388.97
2023-03-20T22:47:17.045Z,98396.38
2023-03-20T22:49:43.403Z,98399.47
2023-03-20T22:52:26.733Z,98398.03
2023-03-20T22:54:56.167Z,98395.59
2023-03-20T22:57:26.651Z,98396.84
2023-03-20T23:00:00.972Z,98390.09
2023-03-20T23:02:27.397Z,98389.50
2023-03-20T23:04:53.706Z,98388.28
2023-03-20T23:07:20.251Z,98388.91
2023-03-20T23:09:47.971Z,98394.66
2023-03-20T23:12:14.419Z,98385.44
2023-03-20T23:14:45.825Z,98385.84
2023-03-20T23:17:12.548Z,98387.91
2023-03-20T23:19:47.774Z,98389.75
2023-03-20T23:27:33.840Z,98389.56
2023-03-20T23:30:00.126Z,98386.06
2023-03-20T23:32:26.420Z,98386.06
2023-03-20T23:34:52.818Z,98386.25
2023-03-20T23:37:19.235Z,98377.66
2023-03-20T23:42:30.229Z,98372.97
2023-03-20T23:45:02.136Z,98375.63
2023-03-20T23:47:43.982Z,98374.19
2023-03-20T23:50:14.590Z,98368.66
2023-03-20T23:52:53.364Z,98371.31
2023-03-20T23:55:23.693Z,98370.28
2023-03-20T23:57:50.038Z,98364.50
